Hovedside
METAR-TAF:

METAR-TAF

Lufthavner :

Kiruna lufthavn

Kiruna, Sverige

breddegrad: 67-49N, lengdegrad: 020-20E, høyde over havet: 452 m

Gjeldene værobservasjon

Denne rapporten ble laget for 10 minutter siden, klokken 20:20 UTC
Vind 2 kt fra Nordøst
Temperatur -8°C
Luftfuktighet 92%
Trykk 1027 hPa
Sikt: 5000 m

METAR: ESNQ 182020Z AUTO 05002KT 5000 OVC006/// M08/M09 Q1027 RESN

Tid: 21:30 (20:30 UTC)

Varsel

Denne rapporten ble laget for 2 timer og 0 minutter siden, klokken 18:30 UTC
Varsel gyldig fra 18. klokken 19 UTC til 18. klokken 24 UTC
Vind 1 kt fra skiftende retning
Sikt 10 km eller mer
Overskyet i en høyde av 500 ft
lett snø
Sannsynlighet 40%
fra 18. klokken 19 UTC til 18. klokken 24 UTC
Brutte skyer i en høyde av 400 ft

TAF: ESNQ 181830Z 1819/1824 VRB01KT 9999 -SN OVC005 PROB40 1819/1824 BKN004

Værobservasjoner og værvarsel for over 4000 flyplasser (METAR- og TAF-rapporter).

Tilgjengelige stasjoner er representert av de røde og gule prikkene på kartet.

Hold musepekeren over prikken for å se navnet på stasjonen.

Klikk så for å se værobservasjoner og -varsler.

For å forandre kartet kan du klikke på den grønne knappen med svart kryss for å zoome inn, på den grønne knappen med strek for å zoome ut, eller på de grønne pilene for å se tilstøtende kart.


METAR-TAF: